John_paul K — PBHY — position and weather

sailwx.info

Track history (hours):
 
Tides and Currents Weather Stations Pressure Air Temp Water Temp Dewpoint Dewpoint Depression Visibility Wind Speed Wind Dir Waves Ship Positions

John_paul K

Last reported at 2014-Sep-13 08:33 UTC. Time now 2014-Sep-16 02:56 UTC.
Position N 35°56' W 005°20'.

Length 90 m; draft 5.6 m.

Type: Cargo ship. MMSI: 245181000.

Date/timePositionNaut miles runAvg speedWind from/ knotsBaromVisibWave heightAir tempDewpointWater temp
2014-Sep-13 08:33N 35°56' W 005°20'2 2.3
2014-Sep-13 07:31N 35°54' W 005°18'0 0.0
2014-Sep-13 06:31N 35°54' W 005°18'0 0.0
2014-Sep-13 05:31N 35°54' W 005°18'1 0.6
2014-Sep-13 04:34N 35°54' W 005°19'1 1.3
2014-Sep-13 03:34N 35°55' W 005°18'207 7.1
2014-Sep-11 22:32N 37°05' W 001°16'11 7.8
2014-Sep-11 21:10N 37°12' W 001°06'6 7.6
2014-Sep-11 20:25N 37°16' W 001°00'16 7.8
2014-Sep-11 18:22N 37°27' W 000°46'6 7.2
2014-Sep-11 17:33N 37°30' W 000°40'8 7.8
2014-Sep-11 16:33N 37°35' W 000°33'8 7.9
2014-Sep-11 15:32N 37°42' W 000°27'8 7.9
2014-Sep-11 14:33N 37°49' W 000°21'8 8.2
2014-Sep-11 13:33N 37°55' W 000°16'8 8.1
2014-Sep-11 12:33N 38°02' W 000°10'8 8.3
2014-Sep-11 11:33N 38°09' W 000°04'19 8.6
2014-Sep-11 09:18N 38°25' E 000°09'7 8.9
2014-Sep-11 08:31N 38°31' E 000°14'40 9.6
2014-Sep-11 04:21N 39°04' E 000°43'7 8.7
2014-Sep-11 03:33N 39°10' E 000°48'37 8.3
2014-Sep-10 23:03N 39°41' E 001°15'5 9.2
2014-Sep-10 22:33N 39°45' E 001°19'8 8.3
2014-Sep-10 21:33N 39°51' E 001°25'9 8.8
2014-Sep-10 20:33N 39°59' E 001°32'9 8.9
2014-Sep-10 19:33N 40°06' E 001°38'9 8.6
2014-Sep-10 18:33N 40°13' E 001°44'9 8.7
2014-Sep-10 17:33N 40°20' E 001°51'9 8.8
2014-Sep-10 16:33N 40°27' E 001°58'9 8.9
2014-Sep-10 15:33N 40°34' E 002°04'9 9.3
2014-Sep-10 14:33N 40°42' E 002°11'10 9.8
2014-Sep-10 13:33N 40°50' E 002°19'10 9.6
2014-Sep-10 12:33N 40°58' E 002°26'9 8.7
2014-Sep-10 11:33N 41°05' E 002°32'9 8.9
2014-Sep-10 10:33N 41°13' E 002°39'1110.5
2014-Sep-10 09:32N 41°21' E 002°47'9 8.1
2014-Sep-10 08:26N 41°29' E 002°54'910.7
2014-Sep-10 07:33N 41°36' E 003°01'1010.3
2014-Sep-10 06:33N 41°45' E 003°09'12 9.5
2014-Sep-10 05:16N 41°56' E 003°16'91 2.9
2014-Sep-08 21:27N 43°24' E 003°43'0 0.0
2014-Sep-08 20:05N 43°24' E 003°43'0 0.0
2014-Sep-08 16:08N 43°24' E 003°43'0 0.0
2014-Sep-08 11:05N 43°24' E 003°43'0 0.0
2014-Sep-08 06:12N 43°24' E 003°43'0 0.0
2014-Sep-07 14:10N 43°24' E 003°43'0 0.0
2014-Sep-07 09:31N 43°24' E 003°43'0 0.0
2014-Sep-07 08:31N 43°24' E 003°43'0 0.2
2014-Sep-07 06:16N 43°24' E 003°43'3 0.4
2014-Sep-06 21:23N 43°21' E 003°45'910.8
2014-Sep-06 20:30N 43°15' E 003°56'1110.3
2014-Sep-06 19:28N 43°08' E 004°06'9 9.8
2014-Sep-06 18:33N 43°01' E 004°14'10 9.9
2014-Sep-06 17:33N 42°54' E 004°23'11 9.6
2014-Sep-06 16:25N 42°46' E 004°34'9 9.9
2014-Sep-06 15:33N 42°40' E 004°41'1210.0
2014-Sep-06 14:24N 42°31' E 004°52'8 9.3
2014-Sep-06 13:31N 42°25' E 004°60'10 9.5
2014-Sep-06 12:30N 42°18' E 005°09'9 9.6
2014-Sep-06 11:33N 42°11' E 005°17'11 9.8
2014-Sep-06 10:24N 42°03' E 005°27'9 9.2
2014-Sep-06 09:27N 41°57' E 005°36'10 9.7
2014-Sep-06 08:26N 41°49' E 005°45'15910.0
2014-Sep-05 16:33N 39°53' E 008°08'8 8.5
2014-Sep-05 15:33N 39°50' E 008°18'13 1.4
2014-Sep-05 06:32N 39°52' E 008°34'0 0.0
2014-Sep-05 02:31N 39°52' E 008°34'0 0.0
2014-Sep-05 01:31N 39°52' E 008°34'0 0.0
2014-Sep-04 23:31N 39°52' E 008°34'16 0.7
2014-Sep-04 01:25N 39°49' E 008°14'131 9.2
2014-Sep-03 11:11N 41°13' E 006°00'  
Track history (hours):
 
Tides and Currents Weather Stations Pressure Air Temp Water Temp Dewpoint Dewpoint Depression Visibility Wind Speed Wind Dir Waves Ship Positions

John_paul K

Last reported at 2014-Sep-13 08:33 UTC. Time now 2014-Sep-16 02:56 UTC.
Position N 35°56' W 005°20'.

Length 90 m; draft 5.6 m.

Type: Cargo ship. MMSI: 245181000.

Date/timePositionNaut miles runAvg speedWind from/ knotsBaromVisibWave heightAir tempDewpointWater temp
2014-Sep-13 08:33N 35°56' W 005°20'2 2.3
2014-Sep-13 07:31N 35°54' W 005°18'0 0.0
2014-Sep-13 06:31N 35°54' W 005°18'0 0.0
2014-Sep-13 05:31N 35°54' W 005°18'1 0.6
2014-Sep-13 04:34N 35°54' W 005°19'1 1.3
2014-Sep-13 03:34N 35°55' W 005°18'207 7.1
2014-Sep-11 22:32N 37°05' W 001°16'11 7.8
2014-Sep-11 21:10N 37°12' W 001°06'6 7.6
2014-Sep-11 20:25N 37°16' W 001°00'16 7.8
2014-Sep-11 18:22N 37°27' W 000°46'6 7.2
2014-Sep-11 17:33N 37°30' W 000°40'8 7.8
2014-Sep-11 16:33N 37°35' W 000°33'8 7.9
2014-Sep-11 15:32N 37°42' W 000°27'8 7.9
2014-Sep-11 14:33N 37°49' W 000°21'8 8.2
2014-Sep-11 13:33N 37°55' W 000°16'8 8.1
2014-Sep-11 12:33N 38°02' W 000°10'8 8.3
2014-Sep-11 11:33N 38°09' W 000°04'19 8.6
2014-Sep-11 09:18N 38°25' E 000°09'7 8.9
2014-Sep-11 08:31N 38°31' E 000°14'40 9.6
2014-Sep-11 04:21N 39°04' E 000°43'7 8.7
2014-Sep-11 03:33N 39°10' E 000°48'37 8.3
2014-Sep-10 23:03N 39°41' E 001°15'5 9.2
2014-Sep-10 22:33N 39°45' E 001°19'8 8.3
2014-Sep-10 21:33N 39°51' E 001°25'9 8.8
2014-Sep-10 20:33N 39°59' E 001°32'9 8.9
2014-Sep-10 19:33N 40°06' E 001°38'9 8.6
2014-Sep-10 18:33N 40°13' E 001°44'9 8.7
2014-Sep-10 17:33N 40°20' E 001°51'9 8.8
2014-Sep-10 16:33N 40°27' E 001°58'9 8.9
2014-Sep-10 15:33N 40°34' E 002°04'9 9.3
2014-Sep-10 14:33N 40°42' E 002°11'10 9.8
2014-Sep-10 13:33N 40°50' E 002°19'10 9.6
2014-Sep-10 12:33N 40°58' E 002°26'9 8.7
2014-Sep-10 11:33N 41°05' E 002°32'9 8.9
2014-Sep-10 10:33N 41°13' E 002°39'1110.5
2014-Sep-10 09:32N 41°21' E 002°47'9 8.1
2014-Sep-10 08:26N 41°29' E 002°54'910.7
2014-Sep-10 07:33N 41°36' E 003°01'1010.3
2014-Sep-10 06:33N 41°45' E 003°09'12 9.5
2014-Sep-10 05:16N 41°56' E 003°16'91 2.9
2014-Sep-08 21:27N 43°24' E 003°43'0 0.0
2014-Sep-08 20:05N 43°24' E 003°43'0 0.0
2014-Sep-08 16:08N 43°24' E 003°43'0 0.0
2014-Sep-08 11:05N 43°24' E 003°43'0 0.0
2014-Sep-08 06:12N 43°24' E 003°43'0 0.0
2014-Sep-07 14:10N 43°24' E 003°43'0 0.0
2014-Sep-07 09:31N 43°24' E 003°43'0 0.0
2014-Sep-07 08:31N 43°24' E 003°43'0 0.2
2014-Sep-07 06:16N 43°24' E 003°43'3 0.4
2014-Sep-06 21:23N 43°21' E 003°45'910.8
2014-Sep-06 20:30N 43°15' E 003°56'1110.3
2014-Sep-06 19:28N 43°08' E 004°06'9 9.8
2014-Sep-06 18:33N 43°01' E 004°14'10 9.9
2014-Sep-06 17:33N 42°54' E 004°23'11 9.6
2014-Sep-06 16:25N 42°46' E 004°34'9 9.9
2014-Sep-06 15:33N 42°40' E 004°41'1210.0
2014-Sep-06 14:24N 42°31' E 004°52'8 9.3
2014-Sep-06 13:31N 42°25' E 004°60'10 9.5
2014-Sep-06 12:30N 42°18' E 005°09'9 9.6
2014-Sep-06 11:33N 42°11' E 005°17'11 9.8
2014-Sep-06 10:24N 42°03' E 005°27'9 9.2
2014-Sep-06 09:27N 41°57' E 005°36'10 9.7
2014-Sep-06 08:26N 41°49' E 005°45'15910.0
2014-Sep-05 16:33N 39°53' E 008°08'8 8.5
2014-Sep-05 15:33N 39°50' E 008°18'13 1.4
2014-Sep-05 06:32N 39°52' E 008°34'0 0.0
2014-Sep-05 02:31N 39°52' E 008°34'0 0.0
2014-Sep-05 01:31N 39°52' E 008°34'0 0.0
2014-Sep-04 23:31N 39°52' E 008°34'16 0.7
2014-Sep-04 01:25N 39°49' E 008°14'131 9.2
2014-Sep-03 11:11N 41°13' E 006°00'  

Dump ship's entire track history